Time;durP1;ratioP1;P1;durP2;ratioP2;P2;SDS_P1;SDS_P2;PMS_P1;PMS_P2;Temp;Humidity;BMP_temperature;BMP_pressure;BME280_temperature;BME280_humidity;BME280_pressure;Samples;Min_cycle;Max_cycle;Signal;HPM_P1;HPM_P2
2021/08/26 00:07:23;;;;;;;14.95;9.27;;;12.90;99.90;;;;;;5073056;28;20086;-71
2021/08/26 00:09:49;;;;;;;17.45;10.18;;;13.00;99.90;;;;;;5072968;28;20051;-71
2021/08/26 00:12:14;;;;;;;13.65;9.40;;;13.00;99.90;;;;;;5090574;28;20474;-72
2021/08/26 00:14:40;;;;;;;13.38;9.70;;;13.10;99.90;;;;;;5093124;28;20051;-71
2021/08/26 00:17:06;;;;;;;14.50;9.30;;;13.20;99.90;;;;;;5107739;22;20048;-72
2021/08/26 00:19:32;;;;;;;15.85;10.18;;;13.30;99.90;;;;;;5072992;28;20032;-72
2021/08/26 00:21:57;;;;;;;15.23;9.80;;;13.30;99.90;;;;;;5071840;28;20043;-72
2021/08/26 00:24:23;;;;;;;12.75;9.77;;;13.30;99.90;;;;;;5072447;28;20028;-72
2021/08/26 00:26:49;;;;;;;14.20;9.45;;;13.30;99.90;;;;;;5082492;28;20024;-72
2021/08/26 00:29:14;;;;;;;12.80;9.10;;;13.30;99.90;;;;;;5092616;28;20032;-72
2021/08/26 00:31:40;;;;;;;11.88;9.35;;;13.30;99.90;;;;;;5092886;28;20027;-72
2021/08/26 00:34:06;;;;;;;13.18;9.38;;;13.30;99.90;;;;;;5092901;28;20016;-71
2021/08/26 00:36:31;;;;;;;15.27;9.50;;;13.20;99.90;;;;;;5090716;28;20046;-72
2021/08/26 00:38:57;;;;;;;12.38;9.20;;;13.10;99.90;;;;;;5092777;28;20028;-72
2021/08/26 00:41:24;;;;;;;12.73;8.85;;;13.00;99.90;;;;;;5092666;28;20028;-74
2021/08/26 00:43:50;;;;;;;16.98;9.65;;;13.00;99.90;;;;;;5091686;28;20036;-73
2021/08/26 00:46:16;;;;;;;14.68;9.55;;;13.00;99.90;;;;;;5073575;28;20020;-73
2021/08/26 00:48:49;;;;;;;16.17;10.43;;;13.10;99.90;;;;;;5092437;28;20028;-73
2021/08/26 00:51:15;;;;;;;11.98;9.57;;;13.20;99.90;;;;;;5091659;28;20023;-73
2021/08/26 00:53:42;;;;;;;18.65;10.38;;;13.30;99.90;;;;;;5092551;28;20482;-73
2021/08/26 00:56:14;;;;;;;14.10;9.43;;;13.50;99.90;;;;;;5073323;28;20051;-75
2021/08/26 00:58:44;;;;;;;16.52;10.82;;;13.30;99.90;;;;;;5091175;28;20030;-74
2021/08/26 01:01:11;;;;;;;17.13;11.23;;;13.40;99.90;;;;;;5073861;28;20024;-74
2021/08/26 01:03:52;;;;;;;15.27;10.98;;;13.40;99.90;;;;;;5092442;28;20385;-74
2021/08/26 01:06:25;;;;;;;23.67;11.27;;;13.30;99.90;;;;;;5090331;28;20043;-73
2021/08/26 01:09:03;;;;;;;18.52;11.35;;;13.30;99.90;;;;;;5091848;28;20434;-74
2021/08/26 01:11:34;;;;;;;17.80;11.82;;;13.20;99.90;;;;;;5073834;28;20027;-73
2021/08/26 01:14:01;;;;;;;15.57;12.48;;;13.20;99.90;;;;;;5071446;28;20028;-73
2021/08/26 01:16:28;;;;;;;23.08;13.48;;;13.20;99.90;;;;;;5070708;28;20032;-73
2021/08/26 01:18:53;;;;;;;18.70;12.98;;;13.10;99.90;;;;;;5083135;28;20032;-74
2021/08/26 01:21:22;;;;;;;14.95;12.27;;;13.00;99.90;;;;;;5091575;28;20069;-73
2021/08/26 01:23:51;;;;;;;19.35;12.90;;;13.00;99.90;;;;;;5091842;28;20024;-73
2021/08/26 01:26:25;;;;;;;17.73;13.57;;;12.80;99.90;;;;;;5089922;28;20028;-73
2021/08/26 01:28:53;;;;;;;23.33;13.52;;;12.80;99.90;;;;;;5091701;28;20106;-73
2021/08/26 01:31:20;;;;;;;23.25;12.82;;;12.70;99.90;;;;;;5091832;28;20024;-73
2021/08/26 01:33:53;;;;;;;16.83;12.38;;;12.70;99.90;;;;;;5091643;28;20028;-73
2021/08/26 01:36:18;;;;;;;19.10;13.93;;;12.70;99.90;;;;;;5089946;28;20024;-73
2021/08/26 01:38:46;;;;;;;23.83;13.60;;;12.60;99.90;;;;;;5091515;28;20366;-73
2021/08/26 01:41:14;;;;;;;21.85;15.40;;;12.60;99.90;;;;;;5091442;28;20103;-74
2021/08/26 01:43:39;;;;;;;18.55;13.68;;;12.50;99.90;;;;;;5087124;28;20033;-73
2021/08/26 01:46:05;;;;;;;20.40;13.20;;;12.40;99.90;;;;;;5069950;28;20028;-73
2021/08/26 01:48:31;;;;;;;16.85;12.57;;;12.40;99.90;;;;;;5070873;28;20143;-73
2021/08/26 01:50:56;;;;;;;18.73;11.52;;;12.30;99.90;;;;;;5070598;28;20497;-73
2021/08/26 01:53:22;;;;;;;15.32;12.00;;;12.30;99.90;;;;;;5070905;28;20094;-74
2021/08/26 01:55:48;;;;;;;19.25;12.88;;;12.30;99.90;;;;;;5070412;28;20021;-74
2021/08/26 01:58:14;;;;;;;18.40;12.73;;;12.30;99.90;;;;;;5070914;28;20485;-74
2021/08/26 02:00:40;;;;;;;14.35;11.77;;;12.40;99.90;;;;;;5051975;28;20020;-74
2021/08/26 02:03:06;;;;;;;20.58;13.38;;;12.30;99.90;;;;;;5052950;28;20024;-74
2021/08/26 02:05:32;;;;;;;25.15;14.73;;;12.30;99.90;;;;;;5069644;28;20017;-74
2021/08/26 02:07:57;;;;;;;23.42;13.68;;;12.40;99.90;;;;;;5070410;28;20099;-74
2021/08/26 02:10:23;;;;;;;19.23;14.30;;;12.40;99.90;;;;;;5070836;28;20074;-74
2021/08/26 02:12:50;;;;;;;18.38;14.02;;;12.40;99.90;;;;;;5070848;28;20028;-73
2021/08/26 02:15:17;;;;;;;19.92;14.57;;;12.30;99.90;;;;;;5070148;28;20093;-74
2021/08/26 02:17:43;;;;;;;22.13;14.70;;;12.30;99.90;;;;;;5069656;28;20085;-74
2021/08/26 02:20:09;;;;;;;21.60;13.52;;;12.30;99.90;;;;;;5070743;28;20462;-74
2021/08/26 02:22:35;;;;;;;19.38;14.50;;;12.20;99.90;;;;;;5070338;28;20111;-74
2021/08/26 02:25:01;;;;;;;24.25;13.88;;;12.20;99.90;;;;;;5069719;28;20514;-74
2021/08/26 02:27:26;;;;;;;22.48;14.93;;;12.10;99.90;;;;;;5070201;28;20074;-73
2021/08/26 02:29:52;;;;;;;21.50;14.73;;;12.10;99.90;;;;;;5070458;28;20474;-73
2021/08/26 02:32:18;;;;;;;19.20;14.30;;;12.10;99.90;;;;;;5070712;28;20062;-73
2021/08/26 02:34:44;;;;;;;20.17;15.00;;;12.00;99.90;;;;;;5069257;28;20025;-74
2021/08/26 02:37:09;;;;;;;20.63;15.93;;;12.00;99.90;;;;;;5070550;28;20066;-74
2021/08/26 02:39:35;;;;;;;24.38;15.75;;;12.00;99.90;;;;;;5069794;28;20025;-73
2021/08/26 02:42:04;;;;;;;19.80;15.05;;;12.00;99.90;;;;;;5070541;28;20067;-74
2021/08/26 02:44:30;;;;;;;20.45;14.60;;;11.90;99.90;;;;;;5069839;28;20024;-73
2021/08/26 02:46:57;;;;;;;25.00;15.93;;;11.90;99.90;;;;;;5069489;28;20504;-72
2021/08/26 02:49:22;;;;;;;22.17;16.70;;;11.80;99.90;;;;;;5070303;28;20021;-74
2021/08/26 02:51:48;;;;;;;26.33;16.60;;;11.80;99.90;;;;;;5070445;28;20387;-72
2021/08/26 02:54:14;;;;;;;22.48;16.95;;;11.80;99.90;;;;;;5069677;28;20051;-73
2021/08/26 02:56:39;;;;;;;25.05;17.52;;;11.60;99.90;;;;;;5070181;28;20048;-73
2021/08/26 02:59:05;;;;;;;23.20;16.95;;;11.60;99.90;;;;;;5070132;28;20445;-74
2021/08/26 03:01:31;;;;;;;25.73;16.65;;;11.50;99.90;;;;;;5069607;28;20029;-74
2021/08/26 03:03:57;;;;;;;21.85;16.58;;;11.50;99.90;;;;;;5070648;28;20482;-74
2021/08/26 03:06:22;;;;;;;22.75;16.67;;;11.60;99.90;;;;;;5069087;28;20148;-74
2021/08/26 03:08:48;;;;;;;24.83;17.02;;;11.60;99.90;;;;;;5069977;28;20147;-74
2021/08/26 03:11:13;;;;;;;23.90;15.88;;;11.50;99.90;;;;;;5069295;28;20127;-73
2021/08/26 03:13:39;;;;;;;23.70;17.15;;;11.50;99.90;;;;;;5070136;28;20090;-74
2021/08/26 03:16:05;;;;;;;24.02;17.38;;;11.50;99.90;;;;;;5069153;28;20441;-74
2021/08/26 03:18:32;;;;;;;21.60;15.70;;;11.40;99.90;;;;;;5069083;28;20044;-75
2021/08/26 03:20:58;;;;;;;24.70;16.63;;;11.40;99.90;;;;;;5072157;28;20021;-73
2021/08/26 03:23:24;;;;;;;22.77;16.98;;;11.40;99.90;;;;;;5073956;28;20051;-72
2021/08/26 03:25:50;;;;;;;24.05;17.85;;;11.40;99.90;;;;;;5072876;28;20035;-72
2021/08/26 03:28:18;;;;;;;28.45;18.20;;;11.40;99.90;;;;;;5073278;28;20671;-73
2021/08/26 03:30:44;;;;;;;27.92;17.70;;;11.30;99.90;;;;;;5073766;28;20044;-73
2021/08/26 03:33:10;;;;;;;29.10;17.75;;;11.20;99.90;;;;;;5073150;28;20045;-73
2021/08/26 03:35:36;;;;;;;24.73;16.38;;;11.20;99.90;;;;;;5072831;28;20058;-73
2021/08/26 03:38:02;;;;;;;21.67;15.93;;;11.20;99.90;;;;;;5072892;28;20024;-73
2021/08/26 03:40:29;;;;;;;23.27;16.77;;;11.30;99.90;;;;;;5073460;28;20028;-74
2021/08/26 03:42:55;;;;;;;20.58;14.88;;;11.30;99.90;;;;;;5072573;28;20052;-74
2021/08/26 03:45:21;;;;;;;28.20;17.42;;;11.40;99.90;;;;;;5072612;28;20060;-72
2021/08/26 03:47:46;;;;;;;21.25;15.52;;;11.40;99.90;;;;;;5073318;28;20032;-73
2021/08/26 03:50:12;;;;;;;20.92;15.23;;;11.40;99.90;;;;;;5072493;28;20051;-74
2021/08/26 03:52:38;;;;;;;23.00;15.82;;;11.50;99.90;;;;;;5073313;28;20036;-73
2021/08/26 03:55:05;;;;;;;21.63;14.93;;;11.40;99.90;;;;;;5072526;28;20474;-73
2021/08/26 03:57:30;;;;;;;19.50;15.05;;;11.50;99.90;;;;;;5072225;28;20132;-73
2021/08/26 03:59:56;;;;;;;21.92;14.25;;;11.50;99.90;;;;;;5071831;28;20060;-72
2021/08/26 04:02:22;;;;;;;24.08;16.08;;;11.60;99.90;;;;;;5073529;28;20402;-72
2021/08/26 04:04:48;;;;;;;21.77;14.63;;;11.60;99.90;;;;;;5071546;28;20029;-73
2021/08/26 04:07:15;;;;;;;26.02;16.00;;;11.70;99.90;;;;;;5073155;28;20035;-73
2021/08/26 04:09:41;;;;;;;22.52;15.75;;;11.70;99.90;;;;;;5072630;28;20016;-73
2021/08/26 04:12:08;;;;;;;24.27;15.70;;;11.80;99.90;;;;;;5072380;28;20381;-73
2021/08/26 04:14:33;;;;;;;23.92;15.82;;;11.80;99.90;;;;;;5072168;28;20028;-73
2021/08/26 04:16:59;;;;;;;24.20;16.35;;;11.80;99.90;;;;;;5072542;28;20048;-73
2021/08/26 04:19:25;;;;;;;19.70;16.23;;;11.80;99.90;;;;;;5071844;28;20082;-73
2021/08/26 04:21:50;;;;;;;24.95;17.13;;;11.80;99.90;;;;;;5072710;28;20402;-73
2021/08/26 04:24:16;;;;;;;26.13;16.75;;;11.80;99.90;;;;;;5071470;28;20029;-73
2021/08/26 04:26:42;;;;;;;23.67;16.13;;;11.80;99.90;;;;;;5072418;28;20028;-78
2021/08/26 04:29:08;;;;;;;20.42;15.80;;;11.70;99.90;;;;;;5073625;28;20035;-78
2021/08/26 04:31:35;;;;;;;25.00;16.23;;;11.80;99.90;;;;;;5071902;28;20047;-77
2021/08/26 04:34:01;;;;;;;25.08;16.00;;;11.80;99.90;;;;;;5092608;28;20020;-77
2021/08/26 04:36:26;;;;;;;21.05;15.07;;;11.70;99.90;;;;;;5092187;28;20464;-77
2021/08/26 04:38:52;;;;;;;19.73;15.50;;;11.70;99.90;;;;;;5092124;28;20070;-77
2021/08/26 04:41:17;;;;;;;20.67;14.90;;;11.60;99.90;;;;;;5092992;28;20135;-77
2021/08/26 04:43:43;;;;;;;19.45;13.93;;;11.60;99.90;;;;;;5092663;28;20024;-77
2021/08/26 04:46:09;;;;;;;18.58;13.98;;;11.50;99.90;;;;;;5092602;28;20048;-77
2021/08/26 04:48:34;;;;;;;21.58;14.48;;;11.50;99.90;;;;;;5077384;28;20036;-78
2021/08/26 04:51:00;;;;;;;19.88;15.63;;;11.60;99.90;;;;;;5073130;28;20108;-78
2021/08/26 04:53:25;;;;;;;20.92;14.15;;;11.60;99.90;;;;;;5072739;28;20023;-77
2021/08/26 04:55:51;;;;;;;20.52;13.65;;;11.70;99.90;;;;;;5071508;28;20033;-78
2021/08/26 04:58:17;;;;;;;19.13;14.02;;;11.70;99.90;;;;;;5072772;28;20021;-78
2021/08/26 05:00:42;;;;;;;20.27;14.50;;;11.70;99.90;;;;;;5071875;28;20023;-77
2021/08/26 05:03:08;;;;;;;20.10;13.50;;;11.70;99.90;;;;;;5072987;28;20062;-78
2021/08/26 05:05:34;;;;;;;17.70;11.85;;;11.70;99.90;;;;;;5071482;28;20147;-78
2021/08/26 05:07:59;;;;;;;16.55;11.50;;;11.80;99.90;;;;;;5071766;28;20056;-78
2021/08/26 05:10:25;;;;;;;17.35;12.10;;;11.80;99.90;;;;;;5054364;28;20095;-78
2021/08/26 05:12:51;;;;;;;17.70;11.50;;;11.80;99.90;;;;;;5071840;28;20098;-77
2021/08/26 05:15:16;;;;;;;17.77;11.18;;;11.80;99.90;;;;;;5053756;28;20016;-77
2021/08/26 05:17:42;;;;;;;19.95;11.05;;;11.80;99.90;;;;;;5053991;28;20045;-77
2021/08/26 05:20:08;;;;;;;19.73;11.30;;;11.80;99.90;;;;;;5071027;28;20043;-77
2021/08/26 05:22:33;;;;;;;15.98;10.38;;;11.70;99.90;;;;;;5089851;28;20020;-78
2021/08/26 05:24:59;;;;;;;13.60;10.65;;;11.80;99.90;;;;;;5091352;28;20500;-77
2021/08/26 05:27:24;;;;;;;14.48;10.57;;;11.80;99.90;;;;;;5092098;28;20032;-78
2021/08/26 05:29:51;;;;;;;15.90;11.10;;;12.00;99.90;;;;;;5091737;28;20107;-77
2021/08/26 05:32:16;;;;;;;19.77;11.05;;;12.10;99.90;;;;;;5092367;28;20044;-77
2021/08/26 05:34:42;;;;;;;15.75;10.32;;;12.20;99.90;;;;;;5098812;28;20031;-77
2021/08/26 05:37:09;;;;;;;21.33;10.85;;;12.20;99.90;;;;;;5107234;28;20020;-77
2021/08/26 05:39:35;;;;;;;16.73;10.55;;;12.20;99.90;;;;;;5108959;28;20551;-78
2021/08/26 05:42:00;;;;;;;18.23;11.25;;;12.30;99.90;;;;;;5108104;28;20035;-77
2021/08/26 05:44:26;;;;;;;15.43;9.77;;;12.30;99.90;;;;;;5091425;28;20058;-77
2021/08/26 05:46:52;;;;;;;15.57;9.55;;;12.40;99.90;;;;;;5072547;28;20020;-77
2021/08/26 05:49:17;;;;;;;16.92;9.40;;;12.20;99.90;;;;;;5091429;28;20024;-77
2021/08/26 05:51:43;;;;;;;15.15;9.52;;;12.30;99.90;;;;;;5091738;28;20414;-76
2021/08/26 05:54:08;;;;;;;18.83;9.57;;;12.40;99.90;;;;;;5089916;28;20350;-76
2021/08/26 05:56:34;;;;;;;11.93;9.13;;;12.50;99.90;;;;;;5071852;28;20492;-76
2021/08/26 05:59:00;;;;;;;12.45;9.80;;;12.50;99.90;;;;;;5090647;28;20024;-75
2021/08/26 06:01:30;;;;;;;13.73;9.30;;;12.70;99.90;;;;;;5090731;28;20034;-77
2021/08/26 06:03:56;;;;;;;16.65;8.90;;;12.90;99.90;;;;;;5091000;28;20028;-76
2021/08/26 06:06:22;;;;;;;10.73;8.88;;;12.90;99.90;;;;;;5090440;28;20080;-77
2021/08/26 06:08:49;;;;;;;16.35;9.02;;;13.00;99.90;;;;;;5071671;28;20481;-76
2021/08/26 06:11:15;;;;;;;15.32;8.93;;;13.00;99.90;;;;;;5091693;28;20024;-75
2021/08/26 06:13:40;;;;;;;12.35;9.00;;;13.10;99.90;;;;;;5091553;28;20073;-76
2021/08/26 06:16:06;;;;;;;14.52;8.70;;;12.90;99.90;;;;;;5090706;28;20029;-76
2021/08/26 06:18:32;;;;;;;13.65;9.15;;;12.90;99.90;;;;;;5095235;22;20496;-78
2021/08/26 06:20:57;;;;;;;14.65;9.10;;;13.00;99.90;;;;;;5056225;28;20397;-78
2021/08/26 06:23:23;;;;;;;15.40;9.32;;;13.10;99.90;;;;;;5069930;28;20108;-77
2021/08/26 06:25:49;;;;;;;12.20;8.40;;;13.30;99.90;;;;;;5068514;28;20024;-78
2021/08/26 06:28:15;;;;;;;13.40;8.15;;;13.40;99.90;;;;;;5049210;28;20091;-78
2021/08/26 06:30:40;;;;;;;12.82;8.90;;;13.40;99.90;;;;;;5050441;28;20048;-77
2021/08/26 06:33:06;;;;;;;11.23;8.18;;;13.60;99.90;;;;;;5035363;28;20029;-77
2021/08/26 06:35:32;;;;;;;14.65;7.93;;;13.70;99.90;;;;;;5041144;28;20020;-78
2021/08/26 06:37:58;;;;;;;10.77;8.13;;;13.80;99.90;;;;;;5047184;28;20059;-77
2021/08/26 06:40:23;;;;;;;14.15;8.38;;;13.90;99.90;;;;;;5050644;28;20033;-78
2021/08/26 06:42:49;;;;;;;10.68;7.38;;;14.00;99.90;;;;;;5035815;28;20052;-77
2021/08/26 06:45:15;;;;;;;11.68;7.78;;;14.00;99.90;;;;;;5033933;28;20029;-76
2021/08/26 06:47:40;;;;;;;10.88;8.25;;;14.00;99.90;;;;;;5049352;28;20091;-77
2021/08/26 06:50:07;;;;;;;13.05;8.00;;;13.80;99.90;;;;;;5050337;28;20032;-77
2021/08/26 06:52:33;;;;;;;12.15;7.38;;;13.80;99.90;;;;;;5049137;28;20029;-78
2021/08/26 06:54:58;;;;;;;9.77;7.68;;;13.90;99.90;;;;;;5032770;28;20029;-77
2021/08/26 06:57:27;;;;;;;9.23;7.90;;;13.90;99.90;;;;;;5035385;28;20021;-77
2021/08/26 06:59:56;;;;;;;13.30;8.68;;;14.20;99.90;;;;;;5035074;28;20017;-78
2021/08/26 07:02:22;;;;;;;8.77;7.57;;;14.30;99.90;;;;;;5035965;28;20476;-77
2021/08/26 07:04:48;;;;;;;12.98;8.43;;;14.20;99.90;;;;;;5053749;28;20033;-78
2021/08/26 07:07:13;;;;;;;12.57;7.82;;;14.30;99.90;;;;;;5054804;28;20037;-78
2021/08/26 07:09:39;;;;;;;10.90;7.93;;;14.20;99.90;;;;;;5048696;28;20036;-78
2021/08/26 07:12:05;;;;;;;13.85;7.60;;;14.40;99.90;;;;;;5034854;28;20100;-78
2021/08/26 07:14:31;;;;;;;10.90;8.10;;;14.50;99.90;;;;;;5016433;28;20092;-78
2021/08/26 07:16:56;;;;;;;11.63;7.70;;;14.50;99.90;;;;;;5034561;28;20018;-78
2021/08/26 07:19:22;;;;;;;13.32;7.65;;;14.80;99.90;;;;;;5053008;28;20059;-78
2021/08/26 07:21:48;;;;;;;11.57;7.93;;;15.00;99.90;;;;;;5054136;28;20471;-77
2021/08/26 07:24:15;;;;;;;11.05;8.23;;;15.20;99.90;;;;;;5054363;28;20025;-77
2021/08/26 07:26:41;;;;;;;12.40;8.13;;;15.30;99.90;;;;;;5053633;28;20029;-77
2021/08/26 07:29:07;;;;;;;10.75;7.43;;;15.40;99.90;;;;;;5054401;28;20029;-78
2021/08/26 07:31:32;;;;;;;11.13;8.38;;;15.50;99.90;;;;;;5054814;28;20104;-77
2021/08/26 07:33:59;;;;;;;10.23;7.40;;;15.70;99.90;;;;;;5053257;28;20113;-78
2021/08/26 07:36:25;;;;;;;12.35;8.02;;;15.80;99.90;;;;;;5053922;28;20025;-78
2021/08/26 07:38:50;;;;;;;9.00;7.10;;;16.00;99.90;;;;;;5053038;28;20075;-77
2021/08/26 07:41:16;;;;;;;12.90;6.97;;;16.00;99.90;;;;;;5054063;28;20375;-78
2021/08/26 07:43:42;;;;;;;10.82;7.22;;;15.90;99.90;;;;;;5053811;28;20419;-78
2021/08/26 07:46:08;;;;;;;11.57;7.50;;;16.10;99.90;;;;;;5052873;28;20491;-78
2021/08/26 07:48:34;;;;;;;11.38;7.63;;;16.00;99.90;;;;;;5053750;28;20067;-77
2021/08/26 07:51:03;;;;;;;11.10;8.30;;;15.90;99.90;;;;;;5053516;28;20017;-78
2021/08/26 07:53:33;;;;;;;10.30;7.43;;;15.80;99.90;;;;;;5053005;28;20051;-78
2021/08/26 07:56:00;;;;;;;11.20;8.00;;;15.60;99.90;;;;;;5053654;28;20025;-77
2021/08/26 07:58:29;;;;;;;11.35;7.65;;;15.30;99.90;;;;;;5035367;28;20029;-78
2021/08/26 08:00:55;;;;;;;12.02;8.35;;;15.20;99.90;;;;;;5053836;28;20017;-77
2021/08/26 08:03:21;;;;;;;11.80;7.47;;;15.20;99.90;;;;;;5053142;28;20028;-77
2021/08/26 08:05:47;;;;;;;14.57;8.27;;;15.10;99.90;;;;;;5052133;28;20383;-77
2021/08/26 08:08:12;;;;;;;12.18;8.60;;;15.10;99.90;;;;;;5052766;28;20025;-77
2021/08/26 08:10:38;;;;;;;12.70;8.45;;;15.20;99.90;;;;;;5052987;28;20056;-77
2021/08/26 08:13:04;;;;;;;11.60;8.50;;;15.20;99.90;;;;;;5053205;28;20025;-77
2021/08/26 08:15:30;;;;;;;11.57;8.50;;;15.00;99.90;;;;;;5034977;28;20029;-78
2021/08/26 08:17:55;;;;;;;13.00;9.07;;;15.00;99.90;;;;;;5052200;28;20581;-77
2021/08/26 08:20:21;;;;;;;12.88;8.63;;;15.00;99.90;;;;;;5053097;28;20412;-78
2021/08/26 08:22:48;;;;;;;12.93;8.55;;;15.00;99.90;;;;;;5053321;28;20059;-78
2021/08/26 08:25:14;;;;;;;10.73;8.10;;;15.20;99.90;;;;;;5052572;28;20079;-78
2021/08/26 08:27:39;;;;;;;11.48;8.57;;;15.30;99.90;;;;;;5051482;28;20426;-77
2021/08/26 08:30:06;;;;;;;11.98;8.50;;;15.20;99.90;;;;;;5049901;28;20051;-78
2021/08/26 08:32:31;;;;;;;11.93;8.45;;;15.30;99.90;;;;;;5050637;28;20024;-79
2021/08/26 08:34:57;;;;;;;11.63;8.05;;;15.20;99.90;;;;;;5043401;28;20025;-79
2021/08/26 08:37:23;;;;;;;13.98;9.60;;;15.30;99.90;;;;;;5052160;28;20029;-77
2021/08/26 08:39:48;;;;;;;12.52;8.88;;;15.40;99.90;;;;;;5052719;28;20048;-78
2021/08/26 08:42:14;;;;;;;13.85;8.80;;;15.50;99.90;;;;;;5052957;28;20032;-78
2021/08/26 08:44:40;;;;;;;12.88;8.93;;;15.70;99.90;;;;;;5051910;28;20090;-78
2021/08/26 08:47:10;;;;;;;11.30;8.20;;;15.80;99.90;;;;;;5065506;28;20025;-78
2021/08/26 08:49:39;;;;;;;15.25;8.60;;;15.80;99.90;;;;;;5056122;28;20025;-78
2021/08/26 08:52:06;;;;;;;11.70;8.35;;;15.50;99.90;;;;;;5053167;28;20102;-78
2021/08/26 08:54:31;;;;;;;12.55;8.88;;;15.50;99.90;;;;;;5052850;28;20025;-78
2021/08/26 08:56:57;;;;;;;10.90;8.75;;;15.50;99.90;;;;;;5053473;28;20021;-79
2021/08/26 08:59:23;;;;;;;11.77;8.73;;;15.90;99.90;;;;;;5052529;28;20103;-78
2021/08/26 09:01:51;;;;;;;12.02;8.45;;;16.10;99.90;;;;;;5052984;28;20028;-78
2021/08/26 09:04:17;;;;;;;14.60;9.18;;;16.30;99.90;;;;;;5050727;28;20482;-79
2021/08/26 09:06:43;;;;;;;12.70;9.65;;;16.40;99.90;;;;;;5052545;28;20032;-78
2021/08/26 09:09:11;;;;;;;12.68;8.90;;;16.60;99.90;;;;;;5052920;28;20025;-78
2021/08/26 09:11:46;;;;;;;14.30;9.07;;;16.90;99.90;;;;;;5034042;28;20028;-78
2021/08/26 09:14:13;;;;;;;11.95;8.50;;;16.70;99.90;;;;;;5052819;28;20021;-78
2021/08/26 09:16:49;;;;;;;12.85;9.85;;;16.70;99.90;;;;;;5033948;28;20021;-78
2021/08/26 09:19:21;;;;;;;11.95;8.95;;;16.70;99.90;;;;;;5050311;28;20486;-77
2021/08/26 09:21:48;;;;;;;20.42;9.00;;;16.90;99.90;;;;;;5052075;28;20398;-77
2021/08/26 09:24:14;;;;;;;15.43;9.02;;;17.00;99.90;;;;;;5051087;28;20490;-78
2021/08/26 09:26:47;;;;;;;13.75;9.35;;;17.20;99.90;;;;;;5051227;28;20029;-77
2021/08/26 09:29:14;;;;;;;14.35;9.57;;;17.10;99.90;;;;;;5051494;28;20433;-77
2021/08/26 09:31:42;;;;;;;11.98;8.90;;;17.10;99.90;;;;;;5051831;28;20044;-77
2021/08/26 09:34:10;;;;;;;10.75;8.20;;;17.00;99.90;;;;;;5051631;28;20017;-78
2021/08/26 09:36:55;;;;;;;14.88;9.00;;;17.00;99.90;;;;;;5032636;28;20013;-78
2021/08/26 09:39:24;;;;;;;12.43;8.82;;;17.00;99.90;;;;;;5051650;28;20036;-78
2021/08/26 09:42:03;;;;;;;12.65;9.00;;;16.90;99.90;;;;;;5051821;28;20040;-78
2021/08/26 09:44:36;;;;;;;11.50;8.02;;;16.90;99.90;;;;;;5051725;28;20029;-78
2021/08/26 09:47:09;;;;;;;16.90;9.48;;;16.80;99.90;;;;;;5053423;28;20495;-79
2021/08/26 09:49:38;;;;;;;10.55;8.05;;;16.60;99.90;;;;;;5051961;28;20025;-80
2021/08/26 09:52:15;;;;;;;13.60;8.65;;;16.50;99.90;;;;;;5051799;28;20063;-79
2021/08/26 09:54:48;;;;;;;16.77;9.20;;;16.40;99.90;;;;;;5052068;28;20021;-77
2021/08/26 09:57:33;;;;;;;10.73;8.52;;;16.20;99.90;;;;;;5051920;28;20096;-78
2021/08/26 10:00:03;;;;;;;13.63;9.20;;;16.20;99.90;;;;;;5050922;28;20028;-78
2021/08/26 10:02:31;;;;;;;15.32;9.27;;;16.40;99.90;;;;;;5052744;28;20098;-79
2021/08/26 10:04:57;;;;;;;15.20;9.13;;;16.40;99.90;;;;;;5052239;28;20020;-78
2021/08/26 10:07:25;;;;;;;11.85;9.35;;;16.30;99.90;;;;;;5052319;28;20024;-78
2021/08/26 10:09:51;;;;;;;16.90;10.60;;;16.30;99.90;;;;;;5052388;28;20029;-78
2021/08/26 10:12:17;;;;;;;12.80;9.43;;;16.30;99.90;;;;;;5053508;28;20052;-81
2021/08/26 10:14:46;;;;;;;16.80;11.15;;;16.50;99.90;;;;;;5034230;28;20048;-81
2021/08/26 10:17:13;;;;;;;16.67;11.30;;;16.70;99.90;;;;;;5042873;28;20032;-82
2021/08/26 10:19:40;;;;;;;15.25;10.23;;;16.80;99.90;;;;;;5053522;28;20024;-83
2021/08/26 10:22:08;;;;;;;11.30;9.35;;;16.90;99.90;;;;;;5037166;28;20029;-82
2021/08/26 10:24:34;;;;;;;13.95;10.50;;;17.00;99.90;;;;;;5053237;28;20021;-81
2021/08/26 10:27:08;;;;;;;14.20;10.10;;;17.10;99.90;;;;;;5062020;28;20139;-83
2021/08/26 10:29:35;;;;;;;15.88;10.00;;;17.20;99.90;;;;;;5054869;28;20084;-82
2021/08/26 10:32:03;;;;;;;12.98;10.25;;;17.40;99.90;;;;;;5057562;28;20080;-82
2021/08/26 10:34:31;;;;;;;14.18;9.77;;;17.50;99.90;;;;;;5054027;28;20043;-84
2021/08/26 10:36:57;;;;;;;11.52;8.98;;;17.50;99.90;;;;;;5048668;28;20086;-82
2021/08/26 10:39:35;;;;;;;8.05;7.03;;;17.50;99.90;;;;;;5054015;28;20022;-84
2021/08/26 10:42:39;;;;;;;10.18;7.07;;;17.40;99.90;;;;;;5051017;28;20044;-78
2021/08/26 10:45:07;;;;;;;9.48;5.88;;;16.80;99.90;;;;;;5039054;28;20056;-78
2021/08/26 10:47:56;;;;;;;10.93;5.97;;;16.90;99.90;;;;;;5051252;28;20025;-78
2021/08/26 10:50:27;;;;;;;6.50;5.90;;;16.80;99.90;;;;;;5050565;28;20052;-78
2021/08/26 10:53:07;;;;;;;9.65;5.55;;;16.80;99.90;;;;;;5050722;28;20020;-78
2021/08/26 10:55:41;;;;;;;7.82;5.38;;;16.50;99.90;;;;;;5030303;28;20426;-78
2021/08/26 10:58:25;;;;;;;6.40;5.75;;;16.40;99.90;;;;;;5012907;28;20075;-78
2021/08/26 11:00:58;;;;;;;8.70;5.97;;;16.50;99.90;;;;;;5030813;28;20025;-78
2021/08/26 11:03:37;;;;;;;5.53;4.55;;;16.30;99.90;;;;;;5031255;28;20021;-78
2021/08/26 11:06:18;;;;;;;5.30;4.80;;;15.90;99.90;;;;;;5043424;28;20391;-78
2021/08/26 11:08:45;;;;;;;6.60;5.32;;;15.70;99.90;;;;;;5050455;28;20030;-78
2021/08/26 11:11:37;;;;;;;6.30;5.70;;;15.70;99.90;;;;;;5050422;28;20027;-78
2021/08/26 11:14:02;;;;;;;5.90;5.30;;;15.90;99.90;;;;;;5025502;28;20125;-78
2021/08/26 11:16:28;;;;;;;5.97;5.20;;;16.20;99.90;;;;;;5030608;28;20112;-78
2021/08/26 11:19:12;;;;;;;7.00;5.53;;;16.20;99.90;;;;;;5042036;28;20086;-78
2021/08/26 11:24:19;;;;;;;3.97;3.63;;;15.90;99.90;;;;;;5050516;28;20041;-78
2021/08/26 11:26:50;;;;;;;10.85;3.80;;;16.10;99.90;;;;;;5050600;28;20032;-78
2021/08/26 11:29:21;;;;;;;9.48;4.13;;;16.40;99.90;;;;;;5049752;28;20021;-78
2021/08/26 11:31:53;;;;;;;13.27;4.22;;;17.00;99.90;;;;;;5050389;28;20021;-78
2021/08/26 11:34:32;;;;;;;4.47;2.65;;;17.30;99.90;;;;;;5050287;28;20096;-78
2021/08/26 11:37:01;;;;;;;9.57;3.72;;;17.60;99.90;;;;;;5050356;28;20021;-78
2021/08/26 11:39:29;;;;;;;1.88;1.58;;;17.80;99.90;;;;;;5050526;28;20032;-78
2021/08/26 11:41:55;;;;;;;3.03;1.90;;;17.90;99.90;;;;;;5052319;28;20044;-78
2021/08/26 11:44:21;;;;;;;2.70;1.73;;;17.90;99.90;;;;;;5052940;28;20051;-78
2021/08/26 11:46:47;;;;;;;2.03;1.83;;;17.60;99.90;;;;;;5053816;28;20104;-78
2021/08/26 11:49:13;;;;;;;3.00;2.17;;;17.40;99.90;;;;;;5053843;28;20061;-78
2021/08/26 11:51:39;;;;;;;3.35;2.25;;;17.80;99.90;;;;;;5036379;28;20056;-78
2021/08/26 11:54:13;;;;;;;2.75;2.50;;;18.50;99.90;;;;;;5054177;28;20013;-78
2021/08/26 11:56:53;;;;;;;2.53;2.33;;;19.50;99.90;;;;;;5035749;28;20048;-78
2021/08/26 11:59:28;;;;;;;5.15;2.38;;;19.50;99.90;;;;;;5048219;28;20414;-78
2021/08/26 12:02:17;;;;;;;3.28;3.03;;;19.80;99.90;;;;;;5054400;28;20391;-78
2021/08/26 12:04:44;;;;;;;4.55;3.88;;;20.30;99.90;;;;;;5039514;28;20189;-77
2021/08/26 12:07:20;;;;;;;6.18;3.78;;;20.20;99.90;;;;;;5048653;28;20086;-77
2021/08/26 12:09:46;;;;;;;4.68;4.18;;;19.80;99.90;;;;;;5034409;28;20044;-80
2021/08/26 12:12:13;;;;;;;5.57;4.20;;;19.00;99.90;;;;;;5043236;28;20100;-78
2021/08/26 12:14:39;;;;;;;4.82;4.30;;;18.90;99.90;;;;;;5053832;28;20082;-79
2021/08/26 12:17:11;;;;;;;6.65;4.85;;;18.60;99.90;;;;;;5054787;28;20498;-80
2021/08/26 12:19:37;;;;;;;8.20;4.63;;;18.70;99.90;;;;;;5052520;28;20025;-79
2021/08/26 12:22:03;;;;;;;5.65;5.05;;;18.40;99.90;;;;;;5131464;23;20114;-76
2021/08/26 12:24:29;;;;;;;5.85;4.55;;;18.20;99.90;;;;;;5081378;28;20108;-77
2021/08/26 12:26:54;;;;;;;7.15;5.28;;;18.20;99.90;;;;;;5080380;28;20442;-77
2021/08/26 12:29:20;;;;;;;8.32;5.03;;;17.90;99.90;;;;;;5090229;28;20024;-76
2021/08/26 12:31:47;;;;;;;6.88;5.00;;;17.60;99.90;;;;;;5073115;28;20080;-77
2021/08/26 12:34:13;;;;;;;10.32;5.30;;;17.20;99.90;;;;;;5072621;28;20012;-76
2021/08/26 12:36:42;;;;;;;10.50;5.40;;;16.70;99.90;;;;;;5080778;28;20069;-76
2021/08/26 12:39:17;;;;;;;6.95;5.20;;;16.50;99.90;;;;;;5092725;28;20024;-77
2021/08/26 12:41:43;;;;;;;8.27;4.90;;;16.50;99.90;;;;;;5092669;28;20363;-77
2021/08/26 12:44:25;;;;;;;7.43;4.72;;;16.20;99.90;;;;;;5088613;28;20024;-71